Time;durP1;ratioP1;P1;durP2;ratioP2;P2;SDS_P1;SDS_P2;PMS_P1;PMS_P2;Temp;Humidity;BMP_temperature;BMP_pressure;BME280_temperature;BME280_humidity;BME280_pressure;Samples;Min_cycle;Max_cycle;Signal;HPM_P1;HPM_P2
2023/01/17 00:00:04;;;;;;;11.73;10.30;;;;;;;3.73;100.00;96599.06;5029215;28;20459;-63
2023/01/17 00:02:31;;;;;;;12.77;9.30;;;;;;;3.45;100.00;96596.31;5023856;28;20502;-63
2023/01/17 00:10:28;;;;;;;10.00;7.97;;;;;;;3.41;100.00;96598.53;5028227;28;20531;-62
2023/01/17 00:12:56;;;;;;;12.60;8.80;;;;;;;3.37;100.00;96600.72;5024057;28;20718;-63
2023/01/17 00:15:23;;;;;;;11.70;9.70;;;;;;;3.47;100.00;96607.50;5023349;28;20482;-64
2023/01/17 00:17:50;;;;;;;11.73;9.17;;;;;;;3.43;100.00;96609.72;5024625;28;20458;-63
2023/01/17 00:26:03;;;;;;;12.73;9.57;;;;;;;3.50;100.00;96623.81;5010789;28;20553;-62
2023/01/17 01:35:18;;;;;;;5.60;4.97;;;;;;;3.47;100.00;96737.75;5038383;28;20445;-59
2023/01/17 01:37:45;;;;;;;7.13;6.20;;;;;;;3.69;100.00;96740.47;5042330;28;20454;-59
2023/01/17 01:40:13;;;;;;;8.43;6.30;;;;;;;3.75;100.00;96737.09;5042069;28;20430;-58
2023/01/17 01:42:50;;;;;;;6.53;5.93;;;;;;;3.62;100.00;96739.56;5042620;28;20546;-59
2023/01/17 01:45:18;;;;;;;6.37;5.77;;;;;;;3.64;100.00;96745.47;5041029;28;20460;-60
2023/01/17 01:47:45;;;;;;;6.97;6.23;;;;;;;3.47;100.00;96742.19;5035366;28;20482;-58
2023/01/17 01:50:12;;;;;;;7.23;6.53;;;;;;;3.63;100.00;96746.47;5021130;28;20466;-59
2023/01/17 01:52:40;;;;;;;7.57;6.63;;;;;;;3.65;100.00;96747.94;5022510;28;20483;-58
2023/01/17 01:55:11;;;;;;;8.50;6.73;;;;;;;3.63;100.00;96752.59;5027428;28;20959;-59
2023/01/17 01:57:40;;;;;;;7.30;6.60;;;;;;;3.63;100.00;96746.47;5021928;28;20482;-58
2023/01/17 02:00:15;;;;;;;8.20;6.50;;;;;;;3.55;100.00;96736.81;5021281;28;20527;-61
2023/01/17 02:02:43;;;;;;;6.53;5.83;;;;;;;3.48;100.00;96749.13;5022426;28;20442;-60
2023/01/17 02:05:11;;;;;;;9.17;7.73;;;;;;;3.48;100.00;96755.22;5021860;28;21006;-63
2023/01/17 02:07:42;;;;;;;11.00;7.83;;;;;;;3.35;100.00;96747.94;5033528;28;20518;-61
2023/01/17 02:10:10;;;;;;;7.97;7.13;;;;;;;3.43;100.00;96757.59;5023320;28;20502;-60
2023/01/17 02:12:37;;;;;;;7.30;6.60;;;;;;;3.48;100.00;96765.78;5018938;28;20518;-60
2023/01/17 02:15:06;;;;;;;8.47;6.83;;;;;;;3.51;100.00;96765.41;5001305;28;20517;-58
2023/01/17 02:17:40;;;;;;;7.37;6.30;;;;;;;3.64;100.00;96766.59;5001996;28;20460;-58
2023/01/17 02:20:43;;;;;;;7.20;6.50;;;;;;;3.59;100.00;96769.78;5000736;28;20463;-59
2023/01/17 02:23:47;;;;;;;7.20;6.50;;;;;;;3.49;100.00;96774.50;4983617;28;20449;-58
2023/01/17 02:26:42;;;;;;;9.50;6.73;;;;;;;3.37;100.00;96755.69;5014768;28;20484;-59
2023/01/17 02:29:49;;;;;;;9.63;7.03;;;;;;;3.46;100.00;96769.63;4996214;28;20592;-59
2023/01/17 02:32:23;;;;;;;7.07;6.37;;;;;;;3.50;100.00;96786.72;4969281;28;20515;-58
2023/01/17 02:34:54;;;;;;;7.60;6.50;;;;;;;3.44;100.00;96784.78;5002545;28;20522;-59
2023/01/17 02:37:25;;;;;;;6.67;5.90;;;;;;;3.43;100.00;96783.97;5002845;28;20915;-58
2023/01/17 02:39:56;;;;;;;7.80;6.70;;;;;;;3.50;100.00;96789.38;5001947;28;20444;-58
2023/01/17 02:42:30;;;;;;;6.13;5.53;;;;;;;3.56;100.00;96797.41;5001825;28;20511;-59
2023/01/17 02:44:56;;;;;;;8.80;6.60;;;;;;;3.62;100.00;96798.47;5002140;28;20488;-60
2023/01/17 02:47:26;;;;;;;6.60;6.00;;;;;;;3.58;100.00;96798.03;5019936;28;20554;-61
2023/01/17 02:49:55;;;;;;;7.17;5.73;;;;;;;3.58;100.00;96798.03;5019351;28;20466;-60
2023/01/17 02:52:33;;;;;;;7.17;6.43;;;;;;;3.49;100.00;96800.91;5002180;28;20502;-59
2023/01/17 02:55:13;;;;;;;7.70;5.60;;;;;;;3.61;100.00;96814.50;5001851;28;20459;-60
2023/01/17 02:57:54;;;;;;;6.73;5.53;;;;;;;3.48;100.00;96815.16;5017385;28;20865;-60
2023/01/17 03:00:23;;;;;;;5.90;5.30;;;;;;;3.44;100.00;96825.25;5008667;28;20491;-61
2023/01/17 03:02:58;;;;;;;5.10;4.60;;;;;;;3.54;100.00;96838.19;5002289;28;20474;-61
2023/01/17 03:05:31;;;;;;;3.60;3.23;;;;;;;3.39;100.00;96832.88;5001204;28;20479;-61
2023/01/17 03:07:57;;;;;;;3.90;3.50;;;;;;;3.41;100.00;96849.38;5001928;28;21068;-60
2023/01/17 03:10:24;;;;;;;4.27;3.87;;;;;;;3.49;100.00;96851.09;5012355;28;20521;-60
2023/01/17 03:12:56;;;;;;;8.33;3.20;;;;;;;3.58;100.00;96855.31;5025214;28;20565;-59
2023/01/17 03:15:23;;;;;;;3.83;3.53;;;;;;;3.41;100.00;96859.94;5039978;28;20453;-58
2023/01/17 03:17:55;;;;;;;3.57;3.27;;;;;;;3.48;100.00;96855.56;5040626;28;20488;-58
2023/01/17 03:20:22;;;;;;;3.57;3.20;;;;;;;3.37;100.00;96861.28;5039954;28;20529;-58
2023/01/17 03:22:49;;;;;;;3.37;3.07;;;;;;;3.32;100.00;96861.81;5038393;28;20478;-58
2023/01/17 03:25:16;;;;;;;3.40;3.10;;;;;;;3.39;100.00;96868.03;5020918;28;20719;-58
2023/01/17 03:27:42;;;;;;;3.73;3.40;;;;;;;3.33;100.00;96865.28;5032436;28;20485;-59
2023/01/17 03:30:10;;;;;;;3.40;3.10;;;;;;;3.45;100.00;96876.22;5038558;28;20711;-58
2023/01/17 03:32:37;;;;;;;3.30;3.00;;;;;;;3.44;100.00;96880.69;5021181;28;20493;-58
2023/01/17 03:35:06;;;;;;;3.50;3.20;;;;;;;3.42;100.00;96880.06;5021351;28;20746;-60
2023/01/17 03:37:32;;;;;;;3.03;2.70;;;;;;;3.28;100.00;96883.47;5020572;28;20478;-60
2023/01/17 03:39:59;;;;;;;3.47;3.17;;;;;;;3.31;100.00;96878.66;5021241;28;20432;-60
2023/01/17 03:42:26;;;;;;;2.77;2.57;;;;;;;3.18;100.00;96884.53;5023452;28;20560;-60
2023/01/17 03:44:52;;;;;;;3.07;2.77;;;;;;;3.18;100.00;96889.81;5022699;28;20482;-60
2023/01/17 03:47:19;;;;;;;2.37;2.17;;;;;;;3.16;100.00;96886.53;5030108;28;20483;-60
2023/01/17 03:49:45;;;;;;;2.50;2.30;;;;;;;3.11;100.00;96899.44;5024389;28;20474;-60
2023/01/17 03:52:14;;;;;;;2.60;1.53;;;;;;;3.11;100.00;96907.34;5024075;28;20558;-61
2023/01/17 03:54:40;;;;;;;1.80;1.70;;;;;;;3.08;100.00;96920.09;5024308;28;20451;-61
2023/01/17 03:57:07;;;;;;;2.37;2.10;;;;;;;3.09;100.00;96916.44;5023961;28;20510;-61
2023/01/17 03:59:34;;;;;;;1.40;1.30;;;;;;;3.00;100.00;96920.94;5024186;28;20508;-60
2023/01/17 04:02:00;;;;;;;1.33;1.23;;;;;;;2.87;100.00;96937.34;5024597;28;20498;-61
2023/01/17 04:04:27;;;;;;;2.20;1.00;;;;;;;2.82;100.00;96939.69;5024825;28;20753;-60
2023/01/17 04:06:54;;;;;;;1.20;1.10;;;;;;;2.79;100.00;96943.47;5023457;28;21039;-60
2023/01/17 04:09:22;;;;;;;0.80;0.80;;;;;;;2.74;100.00;96958.19;5024887;28;20461;-60
2023/01/17 04:11:49;;;;;;;0.80;0.80;;;;;;;2.74;100.00;96969.59;5033165;28;20516;-60
2023/01/17 04:14:16;;;;;;;0.70;0.70;;;;;;;2.56;100.00;96971.63;5043224;28;20482;-61
2023/01/17 04:16:43;;;;;;;0.80;0.80;;;;;;;2.56;100.00;96967.16;5043330;28;20489;-60
2023/01/17 04:19:11;;;;;;;1.17;1.10;;;;;;;2.56;100.00;96980.34;5044245;28;20446;-61
2023/01/17 04:21:37;;;;;;;1.90;0.80;;;;;;;2.57;100.00;96984.66;5043475;28;20474;-60
2023/01/17 04:24:05;;;;;;;1.27;1.13;;;;;;;2.58;100.00;96985.47;5043045;28;20512;-60
2023/01/17 04:26:33;;;;;;;1.27;1.10;;;;;;;2.68;100.00;96991.34;5042881;28;20546;-60
2023/01/17 04:28:59;;;;;;;0.90;0.90;;;;;;;2.62;100.00;96992.88;5039170;28;20482;-58
2023/01/17 04:31:26;;;;;;;1.77;0.80;;;;;;;2.55;100.00;96997.19;5023422;28;21199;-58
2023/01/17 04:33:52;;;;;;;3.47;1.10;;;;;;;2.44;100.00;97021.28;5023951;28;20530;-58
2023/01/17 04:36:19;;;;;;;3.00;1.27;;;;;;;2.56;100.00;97024.38;5023068;28;20504;-59
2023/01/17 04:38:46;;;;;;;0.70;0.70;;;;;;;2.35;100.00;97035.47;5024470;28;20514;-58
2023/01/17 04:41:12;;;;;;;0.80;0.80;;;;;;;2.40;100.00;97027.88;5038624;28;20502;-58
2023/01/17 04:43:40;;;;;;;0.90;0.90;;;;;;;2.26;100.00;97038.13;5037776;28;20459;-58
2023/01/17 04:46:09;;;;;;;0.67;0.67;;;;;;;2.26;100.00;97050.47;5022886;28;20479;-60
2023/01/17 04:48:36;;;;;;;0.80;0.80;;;;;;;2.09;100.00;97049.66;5024392;28;20459;-60
2023/01/17 04:51:04;;;;;;;0.70;0.70;;;;;;;1.98;100.00;97050.84;5022725;28;20574;-60
2023/01/17 04:53:31;;;;;;;0.90;0.80;;;;;;;2.07;100.00;97054.28;5023374;28;20513;-60
2023/01/17 04:55:57;;;;;;;1.27;0.80;;;;;;;2.03;100.00;97059.06;5023233;28;20483;-61
2023/01/17 04:58:24;;;;;;;0.73;0.73;;;;;;;1.97;100.00;97064.97;5027286;28;20494;-60
2023/01/17 05:00:53;;;;;;;0.67;0.67;;;;;;;1.88;100.00;97065.97;5021320;28;20511;-62
2023/01/17 05:03:21;;;;;;;0.70;0.70;;;;;;;1.83;100.00;97063.00;5023407;28;20482;-60
2023/01/17 05:05:48;;;;;;;0.53;0.53;;;;;;;1.78;100.00;97070.56;5022987;28;20470;-60
2023/01/17 05:08:15;;;;;;;1.50;0.60;;;;;;;1.84;100.00;97080.44;5023226;28;20458;-60
2023/01/17 05:10:41;;;;;;;0.73;0.73;;;;;;;1.89;100.00;97083.41;5022306;28;20483;-60
2023/01/17 05:13:09;;;;;;;0.70;0.70;;;;;;;1.91;100.00;97104.31;5023200;28;20561;-60
2023/01/17 05:15:36;;;;;;;1.10;0.90;;;;;;;2.00;100.00;97109.44;5022418;28;20463;-60
2023/01/17 05:18:07;;;;;;;0.80;0.80;;;;;;;2.03;100.00;97114.41;5023395;28;20467;-60
2023/01/17 05:20:35;;;;;;;0.70;0.60;;;;;;;2.10;100.00;97125.09;5036027;28;20500;-60
2023/01/17 05:23:01;;;;;;;0.93;0.83;;;;;;;1.99;100.00;97138.59;5038560;28;20447;-60
2023/01/17 05:25:29;;;;;;;1.37;0.70;;;;;;;2.17;100.00;97135.78;5020913;28;20478;-60
2023/01/17 05:27:58;;;;;;;1.27;1.17;;;;;;;2.09;100.00;97148.97;5021458;28;20505;-60
2023/01/17 05:30:26;;;;;;;0.83;0.83;;;;;;;2.10;100.00;97150.63;5022144;28;20551;-60
2023/01/17 05:32:54;;;;;;;0.93;0.90;;;;;;;1.96;100.00;97155.56;5023139;28;20487;-61
2023/01/17 05:35:24;;;;;;;2.60;1.63;;;;;;;1.97;100.00;97151.91;5021821;28;20458;-62
2023/01/17 05:37:51;;;;;;;1.00;1.00;;;;;;;1.88;100.00;97161.63;5022767;28;20550;-61
2023/01/17 05:40:19;;;;;;;0.80;0.80;;;;;;;1.91;100.00;97162.28;5022822;28;20447;-61
2023/01/17 05:42:46;;;;;;;1.87;1.07;;;;;;;1.85;100.00;97159.31;5021265;28;20467;-61
2023/01/17 05:45:15;;;;;;;0.90;0.90;;;;;;;1.76;100.00;97167.38;5037761;28;20482;-61
2023/01/17 05:47:42;;;;;;;1.20;1.10;;;;;;;1.90;100.00;97171.19;5032579;28;20509;-61
2023/01/17 05:50:10;;;;;;;1.30;1.00;;;;;;;1.77;100.00;97172.47;5021165;28;20438;-61
2023/01/17 05:52:38;;;;;;;1.17;1.07;;;;;;;1.70;100.00;97179.34;5022593;28;20487;-61
2023/01/17 05:55:06;;;;;;;1.10;1.10;;;;;;;2.00;100.00;97174.50;5021809;28;20482;-62
2023/01/17 05:57:33;;;;;;;2.00;1.00;;;;;;;1.81;100.00;97176.44;5026528;28;20489;-61
2023/01/17 06:00:00;;;;;;;1.53;1.00;;;;;;;1.94;100.00;97193.56;5023148;28;20469;-60
2023/01/17 06:02:27;;;;;;;3.10;1.27;;;;;;;1.85;100.00;97198.00;5020081;28;20475;-60
2023/01/17 06:04:53;;;;;;;1.30;1.20;;;;;;;1.91;100.00;97204.44;5020303;28;20452;-64
2023/01/17 06:07:20;;;;;;;1.40;1.30;;;;;;;1.81;100.00;97204.59;5021366;28;20542;-64
2023/01/17 06:09:48;;;;;;;2.07;1.30;;;;;;;1.90;100.00;97206.25;5041037;28;20502;-64
2023/01/17 06:12:14;;;;;;;1.57;1.27;;;;;;;1.98;100.00;97208.91;5035098;28;20511;-64
2023/01/17 06:14:41;;;;;;;1.47;1.20;;;;;;;1.78;100.00;97216.25;5016019;28;20479;-64
2023/01/17 06:17:08;;;;;;;2.60;1.50;;;;;;;1.97;100.00;97216.97;5015800;28;20502;-62
2023/01/17 06:19:34;;;;;;;2.07;1.37;;;;;;;1.86;100.00;97212.84;5018201;28;20451;-62
2023/01/17 06:22:01;;;;;;;1.40;1.30;;;;;;;1.96;100.00;97226.69;5011154;28;20502;-62
2023/01/17 06:24:29;;;;;;;1.73;1.63;;;;;;;2.00;100.00;97224.56;5001720;28;20460;-61
2023/01/17 06:26:57;;;;;;;2.80;1.70;;;;;;;2.05;100.00;97228.34;5001432;28;20475;-61
2023/01/17 06:29:24;;;;;;;1.93;1.83;;;;;;;2.13;100.00;97224.91;5001733;28;20494;-62
2023/01/17 06:31:50;;;;;;;2.30;2.10;;;;;;;2.20;100.00;97222.44;5000210;28;20910;-62
2023/01/17 06:34:17;;;;;;;3.30;2.40;;;;;;;1.99;100.00;97234.25;5001055;28;20535;-62
2023/01/17 06:36:44;;;;;;;2.00;1.83;;;;;;;2.02;100.00;97231.31;5000329;28;20522;-62
2023/01/17 06:39:11;;;;;;;2.50;1.93;;;;;;;2.07;100.00;97239.56;5000791;28;20439;-62
2023/01/17 06:41:37;;;;;;;2.40;2.07;;;;;;;2.13;100.00;97240.72;5000617;28;20516;-61
2023/01/17 06:44:06;;;;;;;2.40;2.00;;;;;;;1.91;100.00;97241.31;4998603;28;20507;-61
2023/01/17 06:46:33;;;;;;;4.13;2.23;;;;;;;2.06;100.00;97239.72;4999690;28;20547;-61
2023/01/17 06:48:59;;;;;;;3.80;2.60;;;;;;;1.98;100.00;97253.69;5001763;28;20466;-61
2023/01/17 06:51:26;;;;;;;7.97;2.50;;;;;;;1.92;100.00;97248.25;4997046;28;20567;-61
2023/01/17 06:53:53;;;;;;;3.17;2.60;;;;;;;1.91;100.00;97254.47;4999499;28;20554;-61
2023/01/17 06:56:20;;;;;;;3.30;2.90;;;;;;;1.98;100.00;97261.59;5000307;28;20840;-61
2023/01/17 06:58:48;;;;;;;9.43;2.50;;;;;;;1.91;100.00;97263.22;5000762;28;20519;-61
2023/01/17 07:01:17;;;;;;;3.10;2.90;;;;;;;1.99;100.00;97268.50;4999413;28;20495;-61
2023/01/17 07:03:43;;;;;;;3.40;2.40;;;;;;;1.98;100.00;97272.16;5000261;28;20977;-61
2023/01/17 07:06:10;;;;;;;3.10;2.53;;;;;;;2.11;100.00;97274.31;4999427;28;20496;-62
2023/01/17 07:08:37;;;;;;;4.27;2.30;;;;;;;2.04;100.00;97279.41;5000544;28;20448;-61
2023/01/17 07:11:06;;;;;;;4.93;2.40;;;;;;;2.07;100.00;97278.28;5000051;28;20486;-62
2023/01/17 07:13:34;;;;;;;4.97;3.03;;;;;;;1.99;100.00;97281.69;5009990;28;21044;-61
2023/01/17 07:16:02;;;;;;;5.90;3.30;;;;;;;2.03;100.00;97287.47;5019270;28;20471;-61
2023/01/17 07:18:30;;;;;;;6.07;3.80;;;;;;;1.96;100.00;97292.56;5020144;28;20466;-61
2023/01/17 07:20:57;;;;;;;6.80;3.80;;;;;;;1.93;100.00;97297.28;5022042;28;20510;-62
2023/01/17 07:23:24;;;;;;;6.30;3.87;;;;;;;1.79;100.00;97301.34;5026353;28;20481;-61
2023/01/17 07:25:52;;;;;;;6.13;3.90;;;;;;;1.93;100.00;97311.31;5026166;28;20478;-62
2023/01/17 07:28:18;;;;;;;6.63;4.50;;;;;;;2.12;100.00;97307.59;5025541;28;20458;-62
2023/01/17 07:30:45;;;;;;;5.97;4.37;;;;;;;2.11;100.00;97308.56;5025935;28;20497;-61
2023/01/17 07:33:12;;;;;;;6.03;3.97;;;;;;;2.10;100.00;97316.63;5027455;28;20811;-62
2023/01/17 07:35:40;;;;;;;5.40;3.60;;;;;;;2.05;100.00;97312.69;5025535;28;20490;-62
2023/01/17 07:38:10;;;;;;;4.73;3.40;;;;;;;2.10;100.00;97306.09;5026405;28;20454;-62
2023/01/17 07:40:36;;;;;;;5.80;4.17;;;;;;;1.96;100.00;97313.63;5026310;28;20502;-62
2023/01/17 07:43:11;;;;;;;5.47;4.07;;;;;;;1.97;100.00;97317.09;5025959;28;20454;-62
2023/01/17 07:45:40;;;;;;;8.83;4.33;;;;;;;1.94;100.00;97318.22;5024491;28;20496;-62
2023/01/17 07:48:07;;;;;;;7.10;4.63;;;;;;;1.97;100.00;97325.00;5026492;28;20517;-62
2023/01/17 07:50:34;;;;;;;6.30;4.30;;;;;;;2.07;100.00;97328.34;5025762;28;20482;-61
2023/01/17 07:53:02;;;;;;;4.97;3.93;;;;;;;1.99;100.00;97333.56;5027152;28;20467;-62
2023/01/17 07:55:28;;;;;;;5.80;3.77;;;;;;;2.10;100.00;97333.28;5025494;28;20972;-62
2023/01/17 07:57:55;;;;;;;5.27;3.53;;;;;;;2.00;100.00;97335.22;5026117;28;20487;-62
2023/01/17 08:00:24;;;;;;;4.73;3.40;;;;;;;2.04;100.00;97336.56;5025526;28;20904;-61
2023/01/17 08:02:55;;;;;;;15.63;3.80;;;;;;;1.97;100.00;97340.81;5026456;28;20439;-62
2023/01/17 08:05:22;;;;;;;6.50;4.27;;;;;;;2.03;100.00;97338.38;5024742;28;21052;-61
2023/01/17 08:07:49;;;;;;;5.10;4.33;;;;;;;1.84;100.00;97346.50;5026592;28;20486;-62
2023/01/17 08:10:17;;;;;;;5.60;4.23;;;;;;;1.81;100.00;97341.56;5025982;28;20486;-61
2023/01/17 08:12:45;;;;;;;4.60;3.43;;;;;;;1.81;100.00;97334.47;5025749;28;20520;-62
2023/01/17 08:15:12;;;;;;;7.47;4.10;;;;;;;1.74;100.00;97338.72;5022593;28;20465;-61
2023/01/17 08:17:38;;;;;;;4.90;4.13;;;;;;;1.77;100.00;97341.06;5006963;28;20520;-61
2023/01/17 08:20:06;;;;;;;5.90;3.60;;;;;;;1.76;100.00;97343.84;5022264;28;20470;-61
2023/01/17 08:22:32;;;;;;;7.40;4.10;;;;;;;1.82;100.00;97359.84;5025288;28;20983;-61
2023/01/17 08:24:59;;;;;;;7.13;3.77;;;;;;;1.95;100.00;97355.94;5025725;28;21021;-61
2023/01/17 08:27:28;;;;;;;6.03;4.27;;;;;;;2.26;100.00;97362.34;5025265;28;21016;-62
2023/01/17 08:29:55;;;;;;;7.40;4.57;;;;;;;2.63;100.00;97361.13;5025430;28;21026;-63
2023/01/17 08:32:22;;;;;;;5.57;3.40;;;;;;;2.78;100.00;97363.16;5023471;28;20506;-62
2023/01/17 08:34:48;;;;;;;4.63;3.37;;;;;;;3.04;100.00;97364.78;5022443;28;20569;-61
2023/01/17 08:37:15;;;;;;;10.63;4.07;;;;;;;2.50;100.00;97362.56;5013981;28;20578;-62
2023/01/17 08:39:42;;;;;;;5.90;3.97;;;;;;;2.32;100.00;97352.94;5008421;28;20479;-61
2023/01/17 08:42:08;;;;;;;7.60;4.30;;;;;;;2.59;100.00;97362.44;5022501;28;20483;-62
2023/01/17 08:44:37;;;;;;;5.70;3.77;;;;;;;2.44;100.00;97358.75;5022619;28;20840;-61
2023/01/17 08:47:04;;;;;;;6.00;4.37;;;;;;;2.18;100.00;97364.13;5022233;28;20489;-61
2023/01/17 08:49:30;;;;;;;6.63;3.93;;;;;;;2.48;100.00;97365.34;5022739;28;20465;-62
2023/01/17 08:51:57;;;;;;;7.47;3.80;;;;;;;2.61;100.00;97373.66;5021018;28;20506;-62
2023/01/17 08:54:24;;;;;;;6.83;3.40;;;;;;;2.10;100.00;97359.66;5022383;28;20486;-62
2023/01/17 08:56:51;;;;;;;5.90;3.87;;;;;;;1.98;100.00;97369.63;5021178;28;20924;-62
2023/01/17 08:59:30;;;;;;;7.37;4.07;;;;;;;2.36;100.00;97372.75;5018723;28;20575;-62
2023/01/17 09:02:00;;;;;;;4.57;3.73;;;;;;;2.76;100.00;97373.00;5017276;28;20478;-62
2023/01/17 09:04:27;;;;;;;7.60;4.30;;;;;;;2.98;100.00;97371.56;5010781;28;20507;-62
2023/01/17 09:06:53;;;;;;;11.50;4.57;;;;;;;2.89;100.00;97381.28;5002734;28;20491;-62
2023/01/17 09:09:20;;;;;;;4.43;4.03;;;;;;;2.63;100.00;97379.56;5003423;28;20465;-63
2023/01/17 09:11:47;;;;;;;7.97;4.40;;;;;;;2.68;100.00;97381.75;5002355;28;20487;-62
2023/01/17 09:14:14;;;;;;;5.73;4.13;;;;;;;2.80;100.00;97377.00;5027734;28;20503;-62
2023/01/17 09:16:41;;;;;;;10.90;4.27;;;;;;;2.68;100.00;97378.28;5041564;28;20546;-62
2023/01/17 09:19:09;;;;;;;5.70;3.40;;;;;;;2.49;100.00;97384.66;5042173;28;20430;-62
2023/01/17 09:21:35;;;;;;;7.93;3.77;;;;;;;2.75;100.00;97387.19;5040762;28;21048;-62
2023/01/17 09:24:07;;;;;;;10.43;4.13;;;;;;;2.75;100.00;97387.19;5009175;28;20458;-62
2023/01/17 09:26:34;;;;;;;4.73;3.00;;;;;;;2.95;100.00;97395.63;5041104;28;20474;-62
2023/01/17 09:29:00;;;;;;;11.37;3.60;;;;;;;2.87;100.00;97399.09;5030763;28;20455;-62
2023/01/17 09:31:27;;;;;;;7.60;3.73;;;;;;;2.72;100.00;97390.97;5021359;28;20525;-61
2023/01/17 09:33:55;;;;;;;4.73;3.50;;;;;;;2.98;100.00;97400.59;5021520;28;20490;-62
2023/01/17 09:36:27;;;;;;;6.40;3.50;;;;;;;3.01;100.00;97400.28;5021967;28;20479;-62
2023/01/17 09:38:56;;;;;;;4.30;3.50;;;;;;;3.11;100.00;97403.59;5024575;28;20455;-62
2023/01/17 09:41:26;;;;;;;5.33;3.87;;;;;;;3.06;100.00;97410.34;5021348;28;20542;-62
2023/01/17 09:43:57;;;;;;;7.77;4.13;;;;;;;3.23;100.00;97412.03;5033595;28;20454;-63
2023/01/17 09:46:25;;;;;;;5.70;3.80;;;;;;;3.47;100.00;97402.44;5034716;28;20486;-63
2023/01/17 09:48:58;;;;;;;4.40;3.40;;;;;;;3.91;100.00;97404.72;5021752;28;20446;-63
2023/01/17 09:51:26;;;;;;;4.80;4.23;;;;;;;4.10;99.51;97406.16;5026036;28;20505;-63
2023/01/17 09:53:53;;;;;;;6.93;4.03;;;;;;;3.72;100.00;97414.63;5022103;28;20487;-63
2023/01/17 09:56:26;;;;;;;10.80;4.50;;;;;;;3.62;100.00;97406.06;5020507;28;20467;-62
2023/01/17 09:59:16;;;;;;;6.43;3.57;;;;;;;2.93;100.00;97416.91;5002380;28;20511;-61
2023/01/17 10:01:48;;;;;;;5.90;3.40;;;;;;;2.97;100.00;97414.78;5029301;28;20498;-62
2023/01/17 10:04:26;;;;;;;7.63;3.67;;;;;;;3.26;100.00;97419.59;5032339;28;20471;-62
2023/01/17 10:07:03;;;;;;;7.83;3.90;;;;;;;4.72;100.00;97423.91;5021007;28;20545;-63
2023/01/17 10:09:42;;;;;;;4.90;4.10;;;;;;;6.22;88.13;97418.13;5001587;28;20428;-63
2023/01/17 10:12:19;;;;;;;9.43;4.47;;;;;;;6.84;84.02;97424.03;5025266;28;20508;-62
2023/01/17 10:14:56;;;;;;;6.33;4.73;;;;;;;5.66;88.86;97429.09;5019958;28;20925;-62
2023/01/17 10:17:35;;;;;;;7.60;4.37;;;;;;;5.00;91.46;97436.66;5020626;28;20498;-62
2023/01/17 10:20:10;;;;;;;6.80;4.50;;;;;;;4.56;94.65;97438.03;4982347;28;20456;-62
2023/01/17 10:22:59;;;;;;;5.97;3.93;;;;;;;4.59;95.93;97442.19;4995369;28;20483;-62
2023/01/17 10:25:41;;;;;;;9.27;5.40;;;;;;;4.63;96.09;97443.47;4991627;28;20445;-63
2023/01/17 10:28:14;;;;;;;11.23;5.23;;;;;;;4.92;95.30;97439.38;5001865;28;20443;-62
2023/01/17 10:30:47;;;;;;;8.33;5.20;;;;;;;5.18;93.36;97444.34;5019177;28;20485;-63
2023/01/17 10:33:16;;;;;;;7.27;4.70;;;;;;;5.51;90.89;97444.94;5013120;28;20456;-62
2023/01/17 10:35:51;;;;;;;7.67;4.73;;;;;;;4.87;93.94;97445.19;5000991;28;20475;-62
2023/01/17 10:38:20;;;;;;;8.73;5.03;;;;;;;4.64;94.48;97440.66;5020785;28;20512;-62
2023/01/17 10:40:50;;;;;;;9.07;5.43;;;;;;;4.42;95.13;97442.22;5002544;28;20510;-62
2023/01/17 10:43:22;;;;;;;7.57;4.60;;;;;;;4.60;95.28;97447.31;5001874;28;20444;-62
2023/01/17 10:45:51;;;;;;;6.93;4.40;;;;;;;4.13;94.91;97432.22;5000303;28;20514;-62
2023/01/17 10:48:21;;;;;;;6.50;4.70;;;;;;;4.26;96.42;97437.00;5000787;28;20492;-63
2023/01/17 10:50:55;;;;;;;9.87;5.00;;;;;;;3.79;95.72;97438.59;4999363;28;20547;-63
2023/01/17 10:53:35;;;;;;;7.27;4.13;;;;;;;4.44;93.78;97440.22;5001205;28;20524;-62
2023/01/17 10:56:02;;;;;;;10.87;5.57;;;;;;;5.76;87.49;97437.59;4999411;28;20514;-62
2023/01/17 10:58:29;;;;;;;8.90;5.70;;;;;;;7.35;78.41;97443.38;5016480;28;20454;-62
2023/01/17 11:00:58;;;;;;;5.53;4.40;;;;;;;7.68;73.85;97434.09;5012449;28;20486;-62
2023/01/17 11:03:27;;;;;;;10.00;4.77;;;;;;;7.67;70.64;97440.41;5000908;28;20787;-63
2023/01/17 11:06:16;;;;;;;7.70;4.60;;;;;;;6.67;73.74;97442.00;5000771;28;21131;-63
2023/01/17 11:08:55;;;;;;;9.47;5.30;;;;;;;6.79;77.52;97440.53;5018834;28;20490;-63
2023/01/17 11:11:23;;;;;;;7.53;4.80;;;;;;;6.53;74.95;97438.38;5019091;28;20497;-62
2023/01/17 11:13:52;;;;;;;7.50;5.20;;;;;;;6.50;76.32;97444.03;5023890;28;20984;-63
2023/01/17 11:16:21;;;;;;;9.00;5.40;;;;;;;6.06;76.35;97439.50;5018913;28;20562;-63
2023/01/17 11:18:49;;;;;;;8.17;5.10;;;;;;;5.92;78.44;97434.00;5021110;28;20772;-63
2023/01/17 11:21:17;;;;;;;8.30;4.30;;;;;;;5.65;80.01;97430.91;5019715;28;20675;-62
2023/01/17 11:23:45;;;;;;;8.10;5.03;;;;;;;5.95;81.23;97438.09;5019833;28;20455;-62
2023/01/17 11:26:25;;;;;;;6.73;5.10;;;;;;;7.68;73.68;97431.44;5035451;28;20470;-63
2023/01/17 11:28:52;;;;;;;8.80;5.70;;;;;;;6.51;76.03;97429.75;5020452;28;20502;-62
2023/01/17 11:31:26;;;;;;;6.90;5.60;;;;;;;5.12;84.96;97435.28;5019334;28;20491;-61
2023/01/17 11:34:07;;;;;;;9.53;6.00;;;;;;;5.79;84.17;97431.94;5020764;28;20490;-61
2023/01/17 11:36:33;;;;;;;9.80;6.50;;;;;;;6.15;81.94;97433.16;5000197;28;20478;-62
2023/01/17 11:39:02;;;;;;;9.83;6.07;;;;;;;5.12;83.04;97437.09;5027398;28;20464;-62
2023/01/17 11:41:34;;;;;;;9.10;6.40;;;;;;;5.07;83.21;97433.16;5031557;28;20482;-62
2023/01/17 11:44:02;;;;;;;6.27;5.37;;;;;;;4.96;84.73;97441.47;5020772;28;20481;-61
2023/01/17 11:46:29;;;;;;;8.30;6.10;;;;;;;4.94;87.18;97437.38;5018336;28;20483;-62
2023/01/17 11:48:58;;;;;;;10.97;7.27;;;;;;;5.07;85.92;97432.34;5020510;28;20486;-61
2023/01/17 11:51:27;;;;;;;11.20;8.20;;;;;;;5.56;85.76;97431.16;5018979;28;20796;-62
2023/01/17 11:53:55;;;;;;;13.90;6.30;;;;;;;6.11;79.65;97435.34;5019654;28;20487;-62
2023/01/17 11:56:29;;;;;;;8.53;6.50;;;;;;;6.14;79.82;97423.53;5038293;28;20521;-62
2023/01/17 11:59:16;;;;;;;10.07;7.67;;;;;;;6.59;77.91;97427.81;5030975;28;20970;-62
2023/01/17 12:01:46;;;;;;;11.27;6.80;;;;;;;7.23;74.97;97436.13;5025145;28;20494;-62
2023/01/17 12:04:24;;;;;;;11.87;7.43;;;;;;;7.08;71.63;97430.81;5038816;28;20478;-62
2023/01/17 12:07:02;;;;;;;10.63;6.70;;;;;;;7.20;72.78;97434.63;5019671;28;20490;-62
2023/01/17 12:09:34;;;;;;;9.23;6.53;;;;;;;6.75;73.08;97432.13;5023535;28;20446;-62
2023/01/17 12:15:03;;;;;;;8.60;6.60;;;;;;;5.73;78.28;97432.69;5042435;28;20566;-62
2023/01/17 12:17:43;;;;;;;9.20;6.80;;;;;;;5.00;82.08;97428.72;5042808;28;20497;-63
2023/01/17 12:20:15;;;;;;;9.90;6.93;;;;;;;4.53;85.97;97430.44;5028446;28;20470;-62
2023/01/17 12:23:12;;;;;;;8.03;7.20;;;;;;;4.42;87.93;97423.72;5023264;28;20475;-61
2023/01/17 12:25:53;;;;;;;13.47;8.53;;;;;;;3.77;91.16;97430.81;5022891;28;20470;-62
2023/01/17 12:28:31;;;;;;;9.67;7.50;;;;;;;3.55;91.61;97427.03;5003172;28;20463;-62
2023/01/17 12:31:11;;;;;;;11.93;7.60;;;;;;;3.87;89.49;97419.22;5028268;28;20481;-62
2023/01/17 12:33:45;;;;;;;13.23;8.30;;;;;;;3.66;92.00;97427.69;5038709;28;21031;-63
2023/01/17 12:36:25;;;;;;;10.13;7.53;;;;;;;4.09;90.89;97430.94;5022566;28;20474;-62
2023/01/17 12:38:51;;;;;;;22.53;8.23;;;;;;;4.13;88.15;97425.13;5022604;28;20493;-62
2023/01/17 12:41:23;;;;;;;10.50;7.87;;;;;;;4.02;89.68;97433.41;5023603;28;20502;-62
2023/01/17 12:43:52;;;;;;;11.40;8.30;;;;;;;3.86;90.55;97433.47;5023425;28;20436;-62
2023/01/17 12:46:27;;;;;;;10.13;7.20;;;;;;;4.14;90.11;97425.97;5031157;28;20473;-62
2023/01/17 12:49:03;;;;;;;14.90;7.90;;;;;;;4.63;88.67;97440.84;5042244;28;21017;-62
2023/01/17 12:51:33;;;;;;;18.23;8.33;;;;;;;5.37;84.00;97432.47;5028426;28;20483;-62
2023/01/17 12:54:05;;;;;;;16.03;9.33;;;;;;;5.59;82.58;97428.97;5022668;28;20509;-62
2023/01/17 12:56:34;;;;;;;13.73;8.00;;;;;;;5.55;81.92;97432.16;5022310;28;20553;-63
2023/01/17 12:59:07;;;;;;;11.50;8.17;;;;;;;5.55;81.50;97440.09;5022543;28;20494;-62
2023/01/17 13:01:38;;;;;;;16.03;8.93;;;;;;;5.35;81.23;97443.25;5021326;28;20509;-62
2023/01/17 13:04:16;;;;;;;10.70;7.83;;;;;;;5.23;83.00;97440.16;5041735;28;20954;-62
2023/01/17 13:06:59;;;;;;;13.40;7.93;;;;;;;5.09;83.34;97451.53;5041645;28;20509;-62